^^
Datos históricos de la estación: Murcia-Puente Tocinos
Diario Informe para Marzo 1, 2019 Unidades:  Inglés    Métrico   Ambas
Diario Semanal Mensual Anual Configurable
  Máximo: Mínimo: Media:
Temperatura: 74.3 °F 46.6 °F 59 °F
Punto de rocio: 51.3 °F 35.8 °F 41.9 °F
Humedad: 81% 27% 55%
Velocidad viento: 9.2mph 0mph 3.3mph
Racha viento: 13.8mph - -
Viento- - South
Presión: 30.2 in 30.1 in -
Precipitación: 0 in    
Historical Graphs
 
 
Tabla de datos para Marzo 1, 2019
Hora Temperatura Punto de rocio Presión Viento Velocidad viento Racha viento Humedad Intensidad lluvia(por hora) Nubes
00:04 57.7 °F 43.5 °F 30.2 in SSE 2 mph 2.3 mph 59% 0 in CLR
00:09 57.6 °F 43.9 °F 30.2 in SSE 1.8 mph 3.5 mph 60% 0 in CLR
00:14 57.6 °F 43 °F 30.2 in SSE 1.8 mph 3.5 mph 58% 0 in CLR
00:19 57.6 °F 42.4 °F 30.2 in SSE 2 mph 6.2 mph 57% 0 in CLR
00:24 57.6 °F 42.1 °F 30.2 in SSE 2 mph 4.6 mph 56% 0 in CLR
00:29 57.6 °F 41.5 °F 30.2 in South 3.6 mph 4.6 mph 55% 0 in CLR
00:34 57.4 °F 41.7 °F 30.2 in South 3.6 mph 4.6 mph 56% 0 in CLR
00:39 57.4 °F 41.7 °F 30.2 in South 2.9 mph 4.6 mph 56% 0 in CLR
00:44 57.2 °F 42.1 °F 30.2 in South 2.9 mph 3.5 mph 57% 0 in CLR
00:49 57 °F 41.9 °F 30.2 in South 2.4 mph 2.4 mph 57% 0 in CLR
00:54 56.7 °F 41.5 °F 30.2 in South 2.4 mph 2.3 mph 57% 0 in CLR
00:59 56.5 °F 41.4 °F 30.2 in South 1.8 mph 2.3 mph 57% 0 in CLR
01:04 56.3 °F 41.7 °F 30.2 in South 1.8 mph   58% 0 in CLR
01:09 56.1 °F 42.4 °F 30.2 in Calm     60% 0 in CLR
01:14 55.8 °F 42.4 °F 30.2 in Calm   2.3 mph 61% 0 in CLR
01:19 55.4 °F 43 °F 30.2 in Calm     63% 0 in CLR
01:24 55 °F 43.2 °F 30.2 in Calm     64% 0 in CLR
01:29 54.9 °F 43 °F 30.2 in Calm     64% 0 in CLR
01:34 54.7 °F 43.2 °F 30.2 in Calm     65% 0 in CLR
01:39 54.7 °F 43.2 °F 30.2 in Calm     65% 0 in CLR
01:44 54.3 °F 42.8 °F 30.2 in Calm     65% 0 in CLR
01:49 54.3 °F 42.8 °F 30.2 in Calm     65% 0 in CLR
01:54 54.3 °F 41.5 °F 30.2 in Calm   3.5 mph 62% 0 in CLR
01:59 54.1 °F 41 °F 30.2 in South 1.8 mph 4.6 mph 61% 0 in CLR
02:04 54.1 °F 41 °F 30.2 in SSE 1.8 mph 5.8 mph 61% 0 in CLR
02:09 54 °F 40.8 °F 30.2 in SSE 3.6 mph 3.5 mph 61% 0 in CLR
02:14 53.8 °F 40.6 °F 30.2 in SSE 3.6 mph 4.6 mph 61% 0 in CLR
02:19 53.4 °F 40.3 °F 30.2 in SE 2.9 mph 4.7 mph 61% 0 in CLR
02:24 53.1 °F 39.6 °F 30.2 in SSE 2.9 mph 5.8 mph 60% 0 in CLR
02:29 52.7 °F 39.6 °F 30.2 in SSE 4 mph 5.8 mph 61% 0 in CLR
02:34 52.5 °F 39.6 °F 30.2 in SSE 4 mph 3.5 mph 61% 0 in CLR
02:39 52.5 °F 39 °F 30.2 in SSE 3.1 mph 3.6 mph 60% 0 in CLR
02:44 52.5 °F 39.6 °F 30.2 in SSE 3.1 mph 2.9 mph 61% 0 in CLR
02:49 52.5 °F 39 °F 30.2 in SSE 2.4 mph 4.6 mph 60% 0 in CLR
02:54 52.5 °F 38.7 °F 30.2 in SSE 2.4 mph 5.8 mph 59% 0 in CLR
02:59 52.7 °F 38.8 °F 30.2 in South 3.6 mph 5.8 mph 59% 0 in CLR
03:04 52.9 °F 38.1 °F 30.2 in SSW 3.6 mph 5.8 mph 57% 0 in CLR
03:09 53.1 °F 38.1 °F 30.2 in SSW 4 mph 5.8 mph 57% 0 in CLR
03:14 53.1 °F 37.8 °F 30.2 in SSW 4 mph 4.6 mph 56% 0 in CLR
03:19 53.1 °F 37.2 °F 30.2 in SSW 2.9 mph 4.6 mph 55% 0 in CLR
03:24 53.1 °F 37.2 °F 30.2 in SSW 2.9 mph 4.6 mph 55% 0 in CLR
03:29 53.1 °F 37.2 °F 30.2 in SSW 3.1 mph 4.6 mph 55% 0 in CLR
03:34 53.1 °F 36.9 °F 30.2 in SSW 3.1 mph 4.6 mph 54% 0 in CLR
03:39 52.9 °F 37 °F 30.2 in SSE 3.1 mph 5.9 mph 55% 0 in CLR
03:44 52.5 °F 37.2 °F 30.2 in SSW 3.1 mph 5.8 mph 56% 0 in CLR
03:49 52.3 °F 37 °F 30.2 in South 4 mph 4.7 mph 56% 0 in CLR
03:54 52.2 °F 37.4 °F 30.2 in SSE 4 mph 5.8 mph 57% 0 in CLR
03:59 51.6 °F 37.2 °F 30.2 in South 4.3 mph 5.9 mph 58% 0 in CLR
04:04 51.3 °F 37.4 °F 30.2 in South 4.3 mph 6.9 mph 59% 0 in CLR
04:09 51.1 °F 37.2 °F 30.2 in SSW 5.2 mph 6.9 mph 59% 0 in CLR
04:14 51.1 °F 37.2 °F 30.2 in SW 5.2 mph 4.6 mph 59% 0 in CLR
04:19 51.3 °F 37 °F 30.2 in SW 4.3 mph 4.6 mph 58% 0 in CLR
04:24 51.6 °F 37.2 °F 30.2 in SW 4.3 mph 4.6 mph 58% 0 in CLR
04:29 52 °F 36.9 °F 30.2 in SW 3.6 mph 5.8 mph 56% 0 in CLR
04:34 52.2 °F 36.5 °F 30.2 in South 3.6 mph 4.6 mph 55% 0 in CLR
04:39 52.3 °F 36.7 °F 30.2 in SW 3.6 mph 4.6 mph 55% 0 in CLR
04:44 52.3 °F 36.1 °F 30.2 in South 3.6 mph 5.8 mph 54% 0 in CLR
04:49 52.2 °F 36 °F 30.2 in SSE 4 mph 5.8 mph 54% 0 in CLR
04:54 51.6 °F 36.9 °F 30.2 in SSE 4 mph 6.9 mph 57% 0 in CLR
04:59 50.7 °F 36.9 °F 30.2 in SSE 4 mph 5.8 mph 59% 0 in CLR
05:04 50.2 °F 36.9 °F 30.2 in SSE 4 mph 6.9 mph 60% 0 in CLR
05:09 49.6 °F 36.7 °F 30.2 in South 5.2 mph 6.9 mph 61% 0 in CLR
05:14 49.6 °F 36.7 °F 30.2 in South 5.2 mph 6.9 mph 61% 0 in CLR
05:19 49.8 °F 36.5 °F 30.2 in South 4.3 mph 4.6 mph 60% 0 in CLR
05:24 50 °F 36.7 °F 30.2 in SSW 4.3 mph 4.6 mph 60% 0 in CLR
05:29 50.2 °F 36.3 °F 30.2 in SSE 3.1 mph 4.6 mph 59% 0 in CLR
05:34 50.4 °F 36.7 °F 30.2 in SSE 3.1 mph 4.6 mph 59% 0 in CLR
05:39 50.4 °F 36.7 °F 30.2 in South 3.1 mph 5.2 mph 59% 0 in CLR
05:44 50.4 °F 36.7 °F 30.2 in South 3.1 mph 3.6 mph 59% 0 in CLR
05:49 50.4 °F 36.7 °F 30.2 in South 3.1 mph 4.6 mph 59% 0 in CLR
05:54 50.2 °F 36.3 °F 30.2 in South 3.1 mph 4.6 mph 59% 0 in CLR
05:59 49.8 °F 36.5 °F 30.2 in SSE 3.1 mph 5.8 mph 60% 0 in CLR
06:04 49.5 °F 36.7 °F 30.2 in South 3.1 mph 4.6 mph 61% 0 in CLR
06:09 49.1 °F 36.7 °F 30.2 in South 4 mph 4.6 mph 62% 0 in CLR
06:14 48.9 °F 36.5 °F 30.2 in South 4 mph 5.8 mph 62% 0 in CLR
06:19 48.9 °F 36.1 °F 30.2 in South 4.3 mph 5.8 mph 61% 0 in CLR
06:24 48.9 °F 36.1 °F 30.2 in SSW 4.3 mph 5.8 mph 61% 0 in CLR
06:29 49.1 °F 36.1 °F 30.2 in SSW 3.6 mph 5.2 mph 61% 0 in CLR
06:34 49.3 °F 36 °F 30.2 in SSW 3.6 mph 5.8 mph 60% 0 in CLR
06:39 49.5 °F 36.1 °F 30.2 in South 4 mph 4.6 mph 60% 0 in CLR
06:44 49.5 °F 36.1 °F 30.2 in South 4 mph 5.8 mph 60% 0 in CLR
06:49 49.6 °F 36 °F 30.2 in SSW 4.3 mph 6.9 mph 59% 0 in CLR
06:54 49.6 °F 36 °F 30.2 in South 4.3 mph 6.2 mph 59% 0 in CLR
06:59 49.6 °F 36 °F 30.2 in South 4.7 mph 5.8 mph 59% 0 in CLR
07:04 49.6 °F 36 °F 30.2 in South 4.7 mph 6.9 mph 59% 0 in CLR
07:09 49.5 °F 35.8 °F 30.2 in NNE 4.7 mph 4.6 mph 59% 0 in CLR
07:14 48.6 °F 36.1 °F 30.2 in NNE 4.7 mph 4.7 mph 62% 0 in CLR
07:19 47.8 °F 36.1 °F 30.2 in NE 3.1 mph 3.5 mph 64% 0 in CLR
07:24 47.5 °F 36.3 °F 30.2 in NE 3.1 mph 2.4 mph 65% 0 in CLR
07:29 47.1 °F 36.3 °F 30.2 in NE 2 mph 2.3 mph 66% 0 in CLR
07:34 46.9 °F 36.1 °F 30.2 in NE 2 mph 2.9 mph 66% 0 in CLR
07:39 46.9 °F 36.5 °F 30.2 in NE 1.8 mph 3.5 mph 67% 0 in CLR
07:44 46.8 °F 36.3 °F 30.2 in NE 1.8 mph   67% 0 in CLR
07:49 46.8 °F 36.9 °F 30.2 in East 1.8 mph 4.6 mph 68% 0 in CLR
07:54 46.8 °F 36.9 °F 30.2 in NNE 1.8 mph 6.2 mph 68% 0 in CLR
07:59 46.9 °F 36.5 °F 30.2 in NNW 3.1 mph 4.6 mph 67% 0 in CLR
08:04 46.6 °F 36.7 °F 30.2 in NNW 3.1 mph 3.5 mph 68% 0 in CLR
08:09 46.6 °F 37 °F 30.2 in NNW 2 mph   69% 0 in CLR
08:14 46.8 °F 37 °F 30.2 in NNW 2 mph 2.4 mph 69% 0 in CLR
08:19 47.1 °F 37 °F 30.2 in NNW 1.4 mph 2.4 mph 68% 0 in CLR
08:24 47.3 °F 37.2 °F 30.2 in North 1.4 mph 3.6 mph 68% 0 in CLR
08:29 47.5 °F 37 °F 30.2 in North 2 mph 2.9 mph 67% 0 in CLR
08:34 47.8 °F 37 °F 30.2 in North 2 mph 2.4 mph 66% 0 in CLR
08:39 48.4 °F 37.2 °F 30.2 in North 1.8 mph   65% 0 in CLR
08:44 48.9 °F 37.8 °F 30.2 in North 1.8 mph 2.3 mph 65% 0 in CLR
08:49 49.5 °F 37.4 °F 30.2 in Calm     63% 0 in CLR
08:54 50 °F 37.6 °F 30.2 in Calm   1.4 mph 62% 0 in CLR
08:59 50.5 °F 37.6 °F 30.2 in Calm   2.3 mph 61% 0 in CLR
09:04 51.1 °F 37.2 °F 30.2 in Calm   2.3 mph 59% 0 in CLR
09:09 51.6 °F 37.2 °F 30.2 in North 1.4 mph 2.3 mph 58% 0 in CLR
09:14 51.8 °F 37.6 °F 30.2 in North 1.4 mph   58% 0 in CLR
09:19 52.5 °F 37.8 °F 30.2 in North 1.4 mph 2.4 mph 57% 0 in CLR
09:24 53.2 °F 37.9 °F 30.2 in ENE 1.4 mph 2.3 mph 56% 0 in CLR
09:29 53.4 °F 37.6 °F 30.2 in ENE 1.8 mph 1.4 mph 55% 0 in CLR
09:34 53.8 °F 37.9 °F 30.2 in ENE 1.8 mph 1.8 mph 55% 0 in CLR
09:39 53.8 °F 37.6 °F 30.2 in Calm   3.5 mph 54% 0 in CLR
09:44 54 °F 38.1 °F 30.2 in Calm     55% 0 in CLR
09:49 54.9 °F 38.5 °F 30.2 in NNW 1.4 mph   54% 0 in CLR
09:54 55.8 °F 38.5 °F 30.2 in ESE 1.4 mph 2.9 mph 52% 0 in CLR
09:59 56.1 °F 37.2 °F 30.2 in ESE 1.4 mph 2.3 mph 49% 0 in CLR
10:04 56.5 °F 37 °F 30.2 in ESE 1.4 mph 2.3 mph 48% 0 in CLR
10:09 56.7 °F 37.2 °F 30.2 in ESE 1.4 mph   48% 0 in CLR
10:14 57 °F 37.6 °F 30.2 in ESE 1.4 mph 2.3 mph 48% 0 in CLR
10:19 57.9 °F 37.8 °F 30.2 in Calm   4.6 mph 47% 0 in CLR
10:24 58.3 °F 37.6 °F 30.2 in Calm   4.6 mph 46% 0 in CLR
10:29 58.5 °F 38.3 °F 30.2 in SE 2.9 mph 2.3 mph 47% 0 in CLR
10:34 58.8 °F 38.1 °F 30.2 in SE 2.9 mph 4.6 mph 46% 0 in CLR
10:39 59.4 °F 37.4 °F 30.2 in SE 2.4 mph 2.9 mph 44% 0 in CLR
10:44 60.1 °F 38.1 °F 30.2 in SE 2.4 mph 3.1 mph 44% 0 in CLR
10:49 60.4 °F 37.8 °F 30.2 in SSW 2 mph 4.6 mph 43% 0 in CLR
10:54 60.6 °F 37.4 °F 30.2 in SSW 2 mph 2.3 mph 42% 0 in CLR
10:59 61.2 °F 38.5 °F 30.2 in NNE 1.8 mph 3.5 mph 43% 0 in CLR
11:04 61.3 °F 38.7 °F 30.2 in NNW 1.8 mph 3.5 mph 43% 0 in CLR
11:09 61.5 °F 38.8 °F 30.2 in NW 1.8 mph 2 mph 43% 0 in CLR
11:14 62.1 °F 39.4 °F 30.2 in NNW 1.8 mph 3.6 mph 43% 0 in CLR
11:19 62.2 °F 39.6 °F 30.2 in North 1.8 mph 2.3 mph 43% 0 in CLR
11:24 62.4 °F 39.6 °F 30.2 in North 1.8 mph   43% 0 in CLR
11:29 63 °F 40.1 °F 30.2 in Calm   2.3 mph 43% 0 in CLR
11:34 63.3 °F 39.7 °F 30.2 in Calm     42% 0 in CLR
11:39 63.7 °F 39.6 °F 30.2 in NNW 1.4 mph   41% 0 in CLR
11:44 64 °F 40.5 °F 30.2 in NW 1.4 mph 2.3 mph 42% 0 in CLR
11:49 64.2 °F 39.9 °F 30.2 in NW 1.4 mph 3.5 mph 41% 0 in CLR
11:54 64.6 °F 39.7 °F 30.2 in NW 1.4 mph 1.2 mph 40% 0 in CLR
11:59 65.5 °F 39.9 °F 30.2 in Calm   2.4 mph 39% 0 in CLR
12:04 65.8 °F 40.8 °F 30.2 in Calm   4.6 mph 40% 0 in CLR
12:09 66 °F 40.3 °F 30.2 in WNW 1.4 mph 3.5 mph 39% 0 in CLR
12:14 66 °F 40.3 °F 30.2 in WSW 1.4 mph 4.3 mph 39% 0 in CLR
12:19 65.8 °F 40.3 °F 30.2 in SW 2.4 mph 4.6 mph 39% 0 in CLR
12:24 65.8 °F 41.5 °F 30.2 in NNW 2.4 mph 4.6 mph 41% 0 in CLR
12:29 66 °F 41 °F 30.2 in NNW 2.4 mph 1.8 mph 40% 0 in CLR
12:34 66.6 °F 40.8 °F 30.2 in NNW 2.4 mph   39% 0 in CLR
12:39 67.3 °F 40.1 °F 30.2 in SSW 1.4 mph 5.8 mph 37% 0 in CLR
12:44 67.5 °F 40.3 °F 30.2 in ESE 1.4 mph 4.6 mph 37% 0 in CLR
12:49 67.8 °F 39.9 °F 30.2 in NNE 2.9 mph 3.5 mph 36% 0 in CLR
12:54 68.2 °F 40.3 °F 30.2 in NE 2.9 mph 2.9 mph 36% 0 in CLR
12:59 68.7 °F 39.2 °F 30.2 in NE 1.8 mph   34% 0 in CLR
13:04 69.3 °F 39.7 °F 30.2 in NNW 1.8 mph 4.6 mph 34% 0 in CLR
13:09 69.4 °F 39 °F 30.2 in NE 1.8 mph 3.1 mph 33% 0 in CLR
13:14 69.6 °F 38.5 °F 30.2 in NE 1.8 mph 4.6 mph 32% 0 in CLR
13:19 69.6 °F 38.5 °F 30.2 in ENE 2 mph 4.6 mph 32% 0 in CLR
13:24 69.4 °F 37.6 °F 30.2 in ENE 2 mph 4.6 mph 31% 0 in CLR
13:29 69.6 °F 38.5 °F 30.2 in ENE 2.4 mph 3.5 mph 32% 0 in CLR
13:34 69.8 °F 38.7 °F 30.2 in NE 2.4 mph 2.3 mph 32% 0 in CLR
13:39 70.3 °F 35.8 °F 30.2 in ESE 1.8 mph 4.6 mph 28% 0 in CLR
13:44 70.7 °F 36 °F 30.2 in ESE 1.8 mph 2.3 mph 28% 0 in CLR
13:49 71.4 °F 36.7 °F 30.1 in ESE 2 mph 2.3 mph 28% 0 in CLR
13:54 72.1 °F 37.2 °F 30.1 in ESE 2 mph 2.3 mph 28% 0 in CLR
13:59 72.7 °F 36.9 °F 30.1 in South 1.8 mph 4.3 mph 27% 0 in CLR
14:04 72.3 °F 36.3 °F 30.1 in ESE 1.8 mph 4.6 mph 27% 0 in CLR
14:09 72.3 °F 36.3 °F 30.1 in WSW 2 mph 4.6 mph 27% 0 in CLR
14:14 72.7 °F 37.8 °F 30.1 in SW 2 mph 4.6 mph 28% 0 in CLR
14:19 72.3 °F 37.4 °F 30.1 in ESE 2.9 mph 5.8 mph 28% 0 in CLR
14:24 72.1 °F 37.2 °F 30.1 in NE 2.9 mph 2.9 mph 28% 0 in CLR
14:29 72.3 °F 38.3 °F 30.1 in ENE 2.9 mph 4.3 mph 29% 0 in CLR
14:34 72.3 °F 38.3 °F 30.1 in NE 2.9 mph 3.5 mph 29% 0 in CLR
14:39 72.7 °F 37.8 °F 30.1 in ENE 2 mph 2.3 mph 28% 0 in CLR
14:44 72.9 °F 37.8 °F 30.1 in ENE 2 mph 2.4 mph 28% 0 in CLR
14:49 73 °F 37.9 °F 30.1 in NNW 1.8 mph 5.4 mph 28% 0 in CLR
14:53 72.9 °F 38.7 °F 30.1 in NNW 1.8 mph 5.8 mph 29% 0 in CLR
14:59 72.9 °F 38.7 °F 30.1 in ENE 3.6 mph 3.5 mph 29% 0 in CLR
15:04 72.9 °F 37.8 °F 30.1 in ENE 3.6 mph 4.6 mph 28% 0 in CLR
15:09 73 °F 37.9 °F 30.1 in ENE 2.4 mph 2.3 mph 28% 0 in CLR
15:14 73.6 °F 38.5 °F 30.1 in ENE 2.4 mph 3.5 mph 28% 0 in CLR
15:19 73.9 °F 37.8 °F 30.1 in Calm   4.6 mph 27% 0 in CLR
15:24 74.1 °F 37.9 °F 30.1 in Calm   6.2 mph 27% 0 in CLR
15:29 73.8 °F 38.7 °F 30.1 in NE 2.9 mph 5.8 mph 28% 0 in CLR
15:34 73.8 °F 38.7 °F 30.1 in ENE 2.9 mph 6.9 mph 28% 0 in CLR
15:39 73.6 °F 38.5 °F 30.1 in ENE 3.6 mph 3.5 mph 28% 0 in CLR
15:44 73.9 °F 38.8 °F 30.1 in South 3.6 mph 4 mph 28% 0 in CLR
15:49 74.3 °F 40.8 °F 30.1 in SE 2.4 mph 6.4 mph 30% 0 in CLR
15:54 73.9 °F 42.3 °F 30.1 in SE 2.4 mph 10.4 mph 32% 0 in CLR
15:59 73.6 °F 42.6 °F 30.1 in ENE 6.2 mph 9.2 mph 33% 0 in CLR
16:04 73 °F 43.9 °F 30.1 in ESE 6.2 mph 9.7 mph 35% 0 in CLR
16:09 72.7 °F 45 °F 30.1 in ESE 7.4 mph 11.5 mph 37% 0 in CLR
16:14 72.1 °F 44.4 °F 30.1 in ESE 7.4 mph 10.4 mph 37% 0 in CLR
16:19 71.8 °F 45.5 °F 30.1 in ESE 7.6 mph 10.4 mph 39% 0 in CLR
16:24 71.2 °F 45.7 °F 30.1 in SE 7.6 mph 10.4 mph 40% 0 in CLR
16:29 70.9 °F 45.3 °F 30.1 in ESE 7.4 mph 13.8 mph 40% 0 in CLR
16:34 70.2 °F 45.3 °F 30.1 in ESE 7.4 mph 11.5 mph 41% 0 in CLR
16:39 69.8 °F 45.7 °F 30.1 in ESE 9.2 mph 11.5 mph 42% 0 in CLR
16:44 69.6 °F 45.5 °F 30.1 in ESE 9.2 mph 10.4 mph 42% 0 in CLR
16:49 69.4 °F 45.3 °F 30.1 in SE 8.1 mph 11.2 mph 42% 0 in CLR
16:54 69.4 °F 45.3 °F 30.1 in East 8.1 mph 9.2 mph 42% 0 in CLR
16:59 69.3 °F 45.1 °F 30.1 in SE 6.4 mph 10.4 mph 42% 0 in CLR
17:04 68.9 °F 45.5 °F 30.1 in ESE 6.4 mph 10.4 mph 43% 0 in CLR
17:09 68.7 °F 45.3 °F 30.1 in ENE 6.9 mph 8.1 mph 43% 0 in CLR
17:14 68.5 °F 45.9 °F 30.1 in ESE 6.9 mph 10 mph 44% 0 in CLR
17:19 68.5 °F 45.9 °F 30.1 in East 5.4 mph 8.1 mph 44% 0 in CLR
17:24 68.4 °F 46.2 °F 30.1 in ENE 5.4 mph 6.9 mph 45% 0 in CLR
17:29 68 °F 46.4 °F 30.1 in East 5.2 mph 6.9 mph 46% 0 in CLR
17:34 67.6 °F 46 °F 30.1 in ESE 5.2 mph 10.4 mph 46% 0 in CLR
17:39 67.6 °F 46.8 °F 30.1 in ESE 6.2 mph 8.5 mph 47% 0 in CLR
17:44 67.8 °F 46.8 °F 30.1 in ESE 6.2 mph 5.8 mph 47% 0 in CLR
17:49 67.6 °F 47.1 °F 30.1 in North 4.3 mph 4.6 mph 48% 0 in CLR
17:54 67.6 °F 47.1 °F 30.1 in NNE 4.3 mph 7.4 mph 48% 0 in CLR
17:59 67.5 °F 47.1 °F 30.1 in NE 4.3 mph 9.2 mph 48% 0 in CLR
18:04 67.1 °F 46.8 °F 30.1 in NE 4.3 mph 9.2 mph 48% 0 in CLR
18:09 66.7 °F 46.4 °F 30.1 in North 6.2 mph 8.1 mph 48% 0 in CLR
18:14 66.4 °F 46.6 °F 30.1 in North 6.2 mph 9.2 mph 49% 0 in CLR
18:19 65.8 °F 46.8 °F 30.1 in NNE 5.4 mph 8.5 mph 50% 0 in CLR
18:24 65.5 °F 46.2 °F 30.1 in North 5.4 mph 12.7 mph 50% 0 in CLR
18:29 65.1 °F 46.6 °F 30.1 in NE 6.2 mph 10.4 mph 51% 0 in CLR
18:34 64.8 °F 46.2 °F 30.1 in NNE 6.2 mph 12.5 mph 51% 0 in CLR
18:39 64.2 °F 46.2 °F 30.1 in NNE 8.1 mph 13.8 mph 52% 0 in CLR
18:44 64 °F 46.6 °F 30.1 in NNE 8.1 mph 10.4 mph 53% 0 in CLR
18:49 63.7 °F 47.7 °F 30.1 in NNE 7.6 mph 10.4 mph 56% 0 in CLR
18:54 63.1 °F 48 °F 30.1 in NE 7.6 mph 11.5 mph 58% 0 in CLR
18:59 62.8 °F 48.2 °F 30.1 in NE 7.6 mph 12.3 mph 59% 0 in CLR
19:04 62.2 °F 48.6 °F 30.1 in North 7.6 mph 12.7 mph 61% 0 in CLR
19:09 61.9 °F 48.7 °F 30.1 in NNE 8.5 mph 10.4 mph 62% 0 in CLR
19:14 61.5 °F 48.4 °F 30.1 in NNE 8.5 mph 12.3 mph 62% 0 in CLR
19:19 61.2 °F 48 °F 30.1 in NE 7.4 mph 13.8 mph 62% 0 in CLR
19:24 61 °F 48.4 °F 30.1 in North 7.4 mph 12.7 mph 63% 0 in CLR
19:29 60.6 °F 47.8 °F 30.1 in NNE 8.5 mph 8.1 mph 63% 0 in CLR
19:34 60.4 °F 47.8 °F 30.1 in North 8.5 mph 9.2 mph 63% 0 in CLR
19:39 60.3 °F 47.1 °F 30.1 in North 6.9 mph 10.4 mph 62% 0 in CLR
19:44 60.1 °F 46.9 °F 30.1 in North 6.9 mph 9.2 mph 62% 0 in CLR
19:49 59.7 °F 47.5 °F 30.1 in NE 7.4 mph 12.7 mph 64% 0 in CLR
19:54 59.5 °F 48.6 °F 30.1 in NNE 7.4 mph 9.2 mph 67% 0 in CLR
19:59 59.4 °F 49.6 °F 30.1 in NNW 6.9 mph 9.2 mph 70% 0 in CLR
20:04 59.2 °F 50.2 °F 30.1 in NE 6.9 mph 9.2 mph 72% 0 in CLR
20:09 58.8 °F 50.2 °F 30.1 in NE 6.2 mph 10 mph 73% 0 in CLR
20:14 58.6 °F 50.4 °F 30.1 in NNE 6.2 mph 10.4 mph 74% 0 in CLR
20:19 58.5 °F 50.5 °F 30.1 in NE 6.4 mph 9.7 mph 75% 0 in CLR
20:24 58.3 °F 50.7 °F 30.1 in NE 6.4 mph 8.1 mph 76% 0 in CLR
20:29 58.1 °F 50.9 °F 30.1 in NNE 6.2 mph 9.2 mph 77% 0 in CLR
20:34 57.9 °F 50.7 °F 30.1 in NNW 6.2 mph 6.9 mph 77% 0 in CLR
20:39 57.7 °F 50.9 °F 30.1 in NNW 4.7 mph 8.1 mph 78% 0 in CLR
20:44 57.7 °F 50.9 °F 30.1 in NNW 4.7 mph 5.9 mph 78% 0 in CLR
20:49 57.6 °F 50.7 °F 30.1 in NW 4 mph 6.9 mph 78% 0 in CLR
20:54 57.4 °F 50.9 °F 30.1 in NNW 4 mph 4.6 mph 79% 0 in CLR
20:59 57.4 °F 50.9 °F 30.1 in NW 3.6 mph 4.6 mph 79% 0 in CLR
21:04 57.2 °F 51.1 °F 30.1 in NNW 3.6 mph 4.6 mph 80% 0 in CLR
21:09 57 °F 50.9 °F 30.1 in NNW 2.9 mph 3.5 mph 80% 0 in CLR
21:14 57 °F 50.9 °F 30.1 in ENE 2.9 mph 2.4 mph 80% 0 in CLR
21:19 57 °F 51.3 °F 30.1 in North 1.8 mph 4.6 mph 81% 0 in CLR
21:24 57 °F 51.3 °F 30.1 in North 1.8 mph 2.9 mph 81% 0 in CLR
21:29 57 °F 51.3 °F 30.1 in North 2 mph   81% 0 in CLR
21:34 57 °F 51.3 °F 30.1 in North 2 mph   81% 0 in CLR
21:39 57 °F 51.3 °F 30.1 in Calm     81% 0 in CLR
21:44 57 °F 51.3 °F 30.1 in Calm     81% 0 in CLR
21:49 57 °F 51.3 °F 30.1 in Calm   4.6 mph 81% 0 in CLR
21:54 57 °F 51.3 °F 30.1 in Calm   4.6 mph 81% 0 in CLR
21:59 57 °F 51.3 °F 30.1 in WNW 2 mph 3.1 mph 81% 0 in CLR
22:04 57 °F 51.3 °F 30.1 in WNW 2 mph 2.3 mph 81% 0 in CLR
22:09 57 °F 51.3 °F 30.1 in WNW 2 mph 3.5 mph 81% 0 in CLR
22:14 57 °F 51.3 °F 30.1 in WNW 2 mph 4.6 mph 81% 0 in CLR
22:19 57 °F 51.3 °F 30.2 in WNW 2.9 mph 4.6 mph 81% 0 in CLR
22:24 56.8 °F 51.1 °F 30.2 in WNW 2.9 mph 3.5 mph 81% 0 in CLR
22:29 56.8 °F 51.1 °F 30.2 in WNW 2.9 mph 4.6 mph 81% 0 in CLR
22:34 56.8 °F 51.1 °F 30.1 in West 2.9 mph 3.5 mph 81% 0 in CLR
22:39 56.8 °F 51.1 °F 30.1 in West 2.4 mph 3.1 mph 81% 0 in CLR
22:44 56.8 °F 50.7 °F 30.1 in West 2.4 mph 3.6 mph 80% 0 in CLR
22:49 57 °F 50.9 °F 30.1 in West 1.8 mph 3.5 mph 80% 0 in CLR
22:54 57 °F 50.9 °F 30.1 in West 1.8 mph 3.5 mph 80% 0 in CLR
22:59 57.2 °F 50.7 °F 30.1 in West 2.4 mph 3.5 mph 79% 0 in CLR
23:04 57.4 °F 50.5 °F 30.1 in West 2.4 mph 3.5 mph 78% 0 in CLR
23:09 57.2 °F 50.2 °F 30.1 in WSW 2 mph 4.6 mph 77% 0 in CLR
23:14 57 °F 49.8 °F 30.1 in WSW 2 mph 4.6 mph 77% 0 in CLR
23:19 57 °F 49.8 °F 30.2 in South 3.1 mph 4.6 mph 77% 0 in CLR
23:24 56.8 °F 49.5 °F 30.2 in SSW 3.1 mph 5.8 mph 76% 0 in CLR
23:29 57 °F 49.5 °F 30.2 in SW 3.6 mph 4.6 mph 76% 0 in CLR
23:34 57 °F 49.5 °F 30.1 in SSW 3.6 mph 5.8 mph 76% 0 in CLR
23:39 57 °F 49.3 °F 30.1 in SW 4 mph 5.8 mph 75% 0 in CLR
23:44 57 °F 48.7 °F 30.1 in South 4 mph 5.8 mph 74% 0 in CLR
23:49 57 °F 48.7 °F 30.1 in SSW 4 mph 5.8 mph 74% 0 in CLR
23:54 56.8 °F 48.4 °F 30.1 in South 4 mph 5.8 mph 73% 0 in CLR
23:59 56.7 °F 48 °F 30.1 in South 4 mph 5.8 mph 73% 0 in CLR
Murcia-Puente Tocinos, España
Compliments of Weather Underground - 2.75 mb

La estación de MeteoMurcia.com, publica sus datos en los siguientes proyectos:

Weather Underground PWS IMURCIAP2 Meteoclimatic www.awekas.at

W3Counter
Web Analytics